createdAt,value
2018-06-21T00:01:47.555Z,100028.47
2018-06-21T00:04:16.417Z,100030.61
2018-06-21T00:06:45.187Z,100027.92
2018-06-21T00:09:13.975Z,100028.47
2018-06-21T00:11:42.729Z,100021.95
2018-06-21T00:14:11.434Z,100027.13
2018-06-21T00:16:40.154Z,100024.13
2018-06-21T00:19:08.874Z,100020.06
2018-06-21T00:21:37.593Z,100015.16
2018-06-21T00:24:06.402Z,100014.88
2018-06-21T00:26:35.139Z,100020.34
2018-06-21T00:29:03.877Z,100017.08
2018-06-21T00:31:32.700Z,100015.72
2018-06-21T00:34:01.427Z,100012.17
2018-06-21T00:36:30.190Z,100010.83
2018-06-21T00:38:58.906Z,100010.55
2018-06-21T00:41:27.628Z,100006.45
2018-06-21T00:43:56.332Z,99999.92
2018-06-21T00:46:25.033Z,99999.39
2018-06-21T00:48:53.894Z,100005.92
2018-06-21T00:51:22.597Z,100006.73
2018-06-21T00:53:51.326Z,99999.39
2018-06-21T00:56:20.878Z,100001.84
2018-06-21T00:58:50.258Z,100000.21
2018-06-21T01:01:19.569Z,99992.86
2018-06-21T01:03:48.806Z,99989.05
2018-06-21T01:06:17.729Z,99982.52
2018-06-21T01:08:46.451Z,99980.62
2018-06-21T01:11:15.172Z,99984.69
2018-06-21T01:13:43.917Z,99983.05
2018-06-21T01:16:12.717Z,99990.41
2018-06-21T01:18:41.438Z,99975.43
2018-06-21T01:21:10.158Z,99982.23
2018-06-21T01:23:38.866Z,99980.06
2018-06-21T01:26:07.590Z,99979.80
2018-06-21T01:28:36.319Z,99975.43
2018-06-21T01:31:05.059Z,99974.89
2018-06-21T01:33:33.757Z,99970.55
2018-06-21T01:36:02.481Z,99979.52
2018-06-21T01:38:31.299Z,99983.06
2018-06-21T01:41:00.012Z,99978.72
2018-06-21T01:43:28.718Z,99981.70
2018-06-21T01:45:57.415Z,99986.05
2018-06-21T01:48:26.133Z,99986.61
2018-06-21T01:50:54.856Z,99986.59
2018-06-21T01:53:23.573Z,99984.69
2018-06-21T01:55:52.322Z,99980.06
2018-06-21T01:58:21.037Z,99982.79
2018-06-21T02:00:49.746Z,99983.59
2018-06-21T02:03:18.462Z,99989.30
2018-06-21T02:05:47.186Z,99981.43
2018-06-21T02:08:15.894Z,99977.35
2018-06-21T02:10:44.620Z,99979.81
2018-06-21T02:13:13.330Z,99981.70
2018-06-21T02:15:42.034Z,99992.87
2018-06-21T02:18:10.742Z,99998.56
2018-06-21T02:20:39.475Z,100003.44
2018-06-21T02:23:08.208Z,100006.98
2018-06-21T02:25:36.960Z,100003.44
2018-06-21T02:28:05.722Z,99997.76
2018-06-21T02:30:34.438Z,100001.27
2018-06-21T02:33:03.163Z,100012.44
2018-06-21T02:35:31.922Z,100017.61
2018-06-21T02:38:00.644Z,100023.87
2018-06-21T02:40:29.349Z,100020.36
2018-06-21T02:42:58.078Z,100021.70
2018-06-21T02:45:26.803Z,100016.53
2018-06-21T02:47:55.596Z,100018.42
2018-06-21T02:50:24.459Z,100014.88
2018-06-21T02:52:53.185Z,100016.79
2018-06-21T02:55:21.923Z,100015.72
2018-06-21T02:57:50.694Z,100019.51
2018-06-21T03:00:19.812Z,100015.70
2018-06-21T03:02:48.607Z,100017.36
2018-06-21T03:05:17.339Z,100010.54
2018-06-21T03:07:46.084Z,100012.45
2018-06-21T03:10:14.847Z,100009.73
2018-06-21T03:12:43.680Z,100014.90
2018-06-21T03:15:12.531Z,100018.97
2018-06-21T03:17:41.299Z,100020.88
2018-06-21T03:20:10.038Z,100023.05
2018-06-21T03:22:38.802Z,100025.77
2018-06-21T03:25:07.614Z,100028.48
2018-06-21T03:27:36.387Z,100023.04
2018-06-21T03:30:05.146Z,100028.48
2018-06-21T03:32:33.900Z,100031.48
2018-06-21T03:35:02.645Z,100031.75
2018-06-21T03:37:31.411Z,100030.40
2018-06-21T03:40:00.282Z,100021.63
2018-06-21T03:42:29.070Z,100025.61
2018-06-21T03:44:57.846Z,100028.88
2018-06-21T03:47:26.581Z,100023.12
2018-06-21T03:49:55.354Z,100024.42
2018-06-21T03:52:24.103Z,100016.64
2018-06-21T03:54:52.844Z,100012.88
2018-06-21T03:57:21.559Z,100018.91
2018-06-21T03:59:50.318Z,100022.56
2018-06-21T04:02:19.103Z,100024.20
2018-06-21T04:04:47.889Z,100027.75
2018-06-21T04:07:16.618Z,100024.03
2018-06-21T04:09:45.377Z,100025.09
2018-06-21T04:12:14.111Z,100019.97
2018-06-21T04:14:42.825Z,100018.37
2018-06-21T04:17:11.529Z,100031.96
2018-06-21T04:19:40.235Z,100031.50
2018-06-21T04:22:09.003Z,100035.03
2018-06-21T04:24:38.077Z,100033.13
2018-06-21T04:27:06.893Z,100036.39
2018-06-21T04:29:35.610Z,100026.76
2018-06-21T04:32:04.330Z,100026.59
2018-06-21T04:34:33.162Z,100034.42
2018-06-21T04:37:01.984Z,100025.05
2018-06-21T04:39:31.231Z,100022.98
2018-06-21T04:42:00.230Z,100025.59
2018-06-21T04:44:29.332Z,100021.75
2018-06-21T04:46:58.630Z,100024.02
2018-06-21T04:49:27.518Z,100025.33
2018-06-21T04:51:56.270Z,100021.77
2018-06-21T04:54:24.978Z,100020.44
2018-06-21T04:56:53.682Z,100015.30
2018-06-21T04:59:22.433Z,100023.34
2018-06-21T05:01:51.554Z,100017.38
2018-06-21T05:04:20.794Z,100014.12
2018-06-21T05:06:49.624Z,100010.80
2018-06-21T05:09:18.367Z,100015.28
2018-06-21T05:11:47.111Z,100018.69
2018-06-21T05:14:15.825Z,100009.55
2018-06-21T05:16:44.540Z,100018.23
2018-06-21T05:19:13.268Z,100019.77
2018-06-21T05:21:42.116Z,100021.31
2018-06-21T05:24:10.837Z,100018.03
2018-06-21T05:26:39.566Z,100018.92
2018-06-21T05:29:08.289Z,100007.08
2018-06-21T05:44:10.233Z,100000.00
2018-06-21T05:46:38.997Z,99994.45
2018-06-21T05:49:07.714Z,99991.38
2018-06-21T05:51:36.461Z,99989.56
2018-06-21T05:54:05.207Z,99999.70
2018-06-21T05:56:34.017Z,99995.50
2018-06-21T05:59:02.826Z,99992.38
2018-06-21T06:01:31.549Z,99993.02
2018-06-21T06:04:00.285Z,99981.77
2018-06-21T06:06:29.063Z,99980.31
2018-06-21T06:08:57.833Z,99981.78
2018-06-21T06:11:26.561Z,99978.44
2018-06-21T06:13:55.290Z,99982.50
2018-06-21T06:16:24.032Z,99981.76
2018-06-21T06:18:52.781Z,99975.83
2018-06-21T06:21:21.555Z,99974.17
2018-06-21T06:23:50.442Z,99978.97
2018-06-21T06:26:19.158Z,99973.73
2018-06-21T06:28:47.872Z,99975.24
2018-06-21T06:31:16.634Z,99981.92
2018-06-21T06:33:45.379Z,99973.92
2018-06-21T06:36:14.172Z,99974.45
2018-06-21T06:38:42.968Z,99970.93
2018-06-21T06:41:11.874Z,99975.99
2018-06-21T06:43:40.609Z,99965.00
2018-06-21T06:46:09.350Z,99969.61
2018-06-21T06:48:38.182Z,99967.95
2018-06-21T06:51:06.927Z,99964.92
2018-06-21T06:53:35.762Z,99966.30
2018-06-21T06:56:04.546Z,99966.74
2018-06-21T06:58:33.346Z,99971.68
2018-06-21T07:01:02.068Z,99973.59
2018-06-21T07:03:30.802Z,99974.73
2018-06-21T07:05:59.549Z,99974.16
2018-06-21T07:08:28.421Z,99971.22
2018-06-21T07:10:57.130Z,99968.13
2018-06-21T07:13:25.862Z,99967.39
2018-06-21T07:15:54.570Z,99967.70
2018-06-21T07:18:23.293Z,99969.17
2018-06-21T07:20:52.049Z,99963.73
2018-06-21T07:23:20.886Z,99963.77
2018-06-21T07:25:49.817Z,99956.89
2018-06-21T07:28:18.537Z,99960.55
2018-06-21T07:30:47.247Z,99957.47
2018-06-21T07:33:16.013Z,99943.34
2018-06-21T07:35:44.755Z,99944.16
2018-06-21T07:38:13.725Z,99944.42
2018-06-21T07:40:42.460Z,99938.31
2018-06-21T07:43:11.227Z,99933.88
2018-06-21T07:45:39.994Z,99931.13
2018-06-21T07:48:08.727Z,99934.48
2018-06-21T07:50:37.675Z,99933.10
2018-06-21T07:53:06.447Z,99937.72
2018-06-21T07:55:35.165Z,99938.66
2018-06-21T07:58:03.869Z,99939.48
2018-06-21T08:00:32.797Z,99932.86
2018-06-21T08:03:01.513Z,99942.27
2018-06-21T08:05:30.239Z,99938.66
2018-06-21T08:07:59.031Z,99938.97
2018-06-21T08:10:27.757Z,99936.10
2018-06-21T08:12:56.496Z,99933.30
2018-06-21T08:15:25.226Z,99932.86
2018-06-21T08:17:53.966Z,99928.12
2018-06-21T08:20:22.699Z,99926.98
2018-06-21T08:22:51.440Z,99915.67
2018-06-21T08:25:20.204Z,99928.09
2018-06-21T08:27:49.018Z,99921.52
2018-06-21T08:30:17.765Z,99915.70
2018-06-21T08:32:47.482Z,99914.34
2018-06-21T08:35:16.557Z,99923.66
2018-06-21T08:37:45.323Z,99918.70
2018-06-21T08:40:14.098Z,99919.91
2018-06-21T08:42:42.865Z,99917.41
2018-06-21T08:45:11.573Z,99913.20
2018-06-21T08:47:40.298Z,99910.27
2018-06-21T08:50:09.015Z,99909.77
2018-06-21T08:52:37.728Z,99908.14
2018-06-21T08:55:06.837Z,99902.45
2018-06-21T08:57:35.652Z,99898.37
2018-06-21T09:00:04.419Z,99902.50
2018-06-21T09:02:33.566Z,99899.66
2018-06-21T09:05:02.330Z,99897.44
2018-06-21T09:20:31.035Z,99887.48
2018-06-21T09:22:59.765Z,99882.05
2018-06-21T09:25:28.511Z,99882.39
2018-06-21T09:27:57.255Z,99879.59
2018-06-21T09:30:25.981Z,99878.69
2018-06-21T09:32:54.738Z,99870.13
2018-06-21T09:35:23.455Z,99864.33
2018-06-21T09:37:57.381Z,99866.75
2018-06-21T09:40:31.254Z,99858.33
2018-06-21T09:43:05.149Z,99858.03
2018-06-21T09:45:38.930Z,99853.48
2018-06-21T09:48:12.901Z,99860.05
2018-06-21T09:50:41.642Z,99851.01
2018-06-21T09:53:10.388Z,99855.48
2018-06-21T09:55:39.100Z,99855.13
2018-06-21T09:58:07.805Z,99850.12
2018-06-21T10:00:41.947Z,99851.45
2018-06-21T10:03:10.664Z,99848.23
2018-06-21T10:05:39.389Z,99842.28
2018-06-21T10:08:08.130Z,99838.44
2018-06-21T10:10:36.871Z,99834.65
2018-06-21T10:13:05.618Z,99829.21
2018-06-21T10:15:34.992Z,99822.88
2018-06-21T10:18:04.170Z,99820.32
2018-06-21T10:20:33.593Z,99817.01
2018-06-21T10:23:02.671Z,99817.70
2018-06-21T10:25:31.534Z,99821.70
2018-06-21T10:28:00.444Z,99809.47
2018-06-21T10:30:29.232Z,99814.27
2018-06-21T10:32:58.058Z,99812.86
2018-06-21T10:35:26.855Z,99802.06
2018-06-21T10:37:55.710Z,99801.44
2018-06-21T10:40:24.546Z,99792.03
2018-06-21T10:42:53.643Z,99796.43
2018-06-21T10:45:22.560Z,99782.44
2018-06-21T10:47:51.550Z,99785.73
2018-06-21T10:50:20.403Z,99765.72
2018-06-21T10:52:49.355Z,99760.28
2018-06-21T10:55:18.083Z,99750.53
2018-06-21T10:57:47.051Z,99747.40
2018-06-21T11:00:15.869Z,99747.52
2018-06-21T11:02:45.018Z,99738.48
2018-06-21T11:05:13.899Z,99741.20
2018-06-21T11:07:43.220Z,99724.84
2018-06-21T11:10:13.622Z,99719.29
2018-06-21T11:12:42.456Z,99703.84
2018-06-21T11:15:11.150Z,99702.66
2018-06-21T11:17:39.890Z,99689.37
2018-06-21T11:20:09.436Z,99694.38
2018-06-21T11:22:41.066Z,99681.58
2018-06-21T11:25:09.796Z,99677.11
2018-06-21T11:27:38.557Z,99671.52
2018-06-21T11:30:07.616Z,99664.02
2018-06-21T11:32:36.296Z,99659.73
2018-06-21T11:35:05.047Z,99653.42
2018-06-21T11:37:34.438Z,99653.39
2018-06-21T11:40:03.180Z,99655.66
2018-06-21T11:42:31.909Z,99648.64
2018-06-21T11:45:00.625Z,99648.17
2018-06-21T11:47:29.349Z,99645.80
2018-06-21T11:49:58.070Z,99638.78
2018-06-21T11:52:26.766Z,99634.27
2018-06-21T11:54:55.498Z,99626.84
2018-06-21T11:57:24.201Z,99624.72
2018-06-21T11:59:52.969Z,99624.84
2018-06-21T12:02:21.748Z,99621.34
2018-06-21T12:04:50.434Z,99618.77
2018-06-21T12:07:19.204Z,99616.17
2018-06-21T12:09:47.905Z,99614.88
2018-06-21T12:12:16.638Z,99615.84
2018-06-21T12:14:45.441Z,99607.98
2018-06-21T12:17:14.209Z,99606.49
2018-06-21T12:19:42.905Z,99606.92
2018-06-21T12:22:11.798Z,99595.22
2018-06-21T12:24:40.540Z,99600.14
2018-06-21T12:27:09.405Z,99597.06
2018-06-21T12:29:38.239Z,99586.31
2018-06-21T12:32:06.977Z,99591.58
2018-06-21T12:34:35.726Z,99582.70
2018-06-21T12:37:04.482Z,99579.89
2018-06-21T12:39:33.253Z,99574.78
2018-06-21T12:42:02.006Z,99571.66
2018-06-21T12:44:30.740Z,99569.59
2018-06-21T12:46:59.557Z,99566.43
2018-06-21T12:49:28.331Z,99568.55
2018-06-21T12:51:57.206Z,99573.89
2018-06-21T12:54:26.194Z,99567.00
2018-06-21T12:56:54.921Z,99570.12
2018-06-21T12:59:23.643Z,99571.84
2018-06-21T13:01:52.397Z,99571.98
2018-06-21T13:04:21.225Z,99573.00
2018-06-21T13:06:50.017Z,99573.26
2018-06-21T13:09:31.549Z,99562.50
2018-06-21T13:12:25.204Z,99556.84
2018-06-21T13:14:54.335Z,99567.02
2018-06-21T13:17:23.091Z,99554.93
2018-06-21T13:19:51.847Z,99560.70
2018-06-21T13:22:20.727Z,99560.56
2018-06-21T13:24:49.477Z,99551.36
2018-06-21T13:27:18.426Z,99555.52
2018-06-21T13:29:47.126Z,99561.09
2018-06-21T13:32:15.854Z,99561.99
2018-06-21T13:34:44.553Z,99567.73
2018-06-21T13:37:13.422Z,99581.64
2018-06-21T13:39:42.204Z,99580.31
2018-06-21T13:42:10.901Z,99587.64
2018-06-21T13:44:39.614Z,99594.86
2018-06-21T13:47:08.436Z,99599.23
2018-06-21T13:49:37.161Z,99603.33
2018-06-21T13:52:06.242Z,99617.19
2018-06-21T13:57:08.771Z,99639.05
2018-06-21T13:59:37.506Z,99618.84
2018-06-21T14:02:06.278Z,99649.44
2018-06-21T14:04:34.987Z,99636.91
2018-06-21T14:07:03.679Z,99640.25
2018-06-21T14:09:32.428Z,99627.53
2018-06-21T14:12:01.143Z,99637.06
2018-06-21T14:14:29.845Z,99618.74
2018-06-21T14:16:58.541Z,99600.95
2018-06-21T14:19:27.246Z,99597.34
2018-06-21T14:21:56.476Z,99600.26
2018-06-21T14:24:25.233Z,99596.83
2018-06-21T14:26:53.921Z,99588.89
2018-06-21T14:29:22.626Z,99588.92
2018-06-21T14:31:51.310Z,99595.05
2018-06-21T14:34:20.027Z,99577.91
2018-06-21T14:36:48.726Z,99580.02
2018-06-21T14:39:17.438Z,99578.48
2018-06-21T14:41:46.341Z,99578.66
2018-06-21T14:44:15.479Z,99578.88
2018-06-21T14:46:44.252Z,99594.27
2018-06-21T14:49:12.957Z,99586.43
2018-06-21T14:51:41.661Z,99585.80
2018-06-21T14:54:10.377Z,99594.10
2018-06-21T14:56:39.130Z,99606.33
2018-06-21T14:59:07.998Z,99596.42
2018-06-21T15:01:36.847Z,99593.44
2018-06-21T15:04:05.780Z,99586.91
2018-06-21T15:06:34.857Z,99584.75
2018-06-21T15:09:04.575Z,99584.19
2018-06-21T15:11:33.133Z,99575.28
2018-06-21T15:14:01.832Z,99584.50
2018-06-21T15:16:30.525Z,99577.31
2018-06-21T15:18:59.227Z,99574.56
2018-06-21T15:21:27.966Z,99573.66
2018-06-21T15:23:56.695Z,99570.34
2018-06-21T15:26:25.442Z,99565.62
2018-06-21T15:28:54.150Z,99569.92
2018-06-21T15:31:22.922Z,99570.59
2018-06-21T15:33:51.622Z,99567.12
2018-06-21T15:36:20.375Z,99571.33
2018-06-21T15:38:49.065Z,99568.79
2018-06-21T15:41:17.753Z,99559.04
2018-06-21T15:43:46.466Z,99552.02
2018-06-21T15:46:15.163Z,99551.79
2018-06-21T15:48:43.871Z,99557.45
2018-06-21T15:51:12.578Z,99549.84
2018-06-21T15:53:41.286Z,99547.85
2018-06-21T15:56:10.050Z,99546.42
2018-06-21T15:58:38.790Z,99546.98
2018-06-21T16:01:07.567Z,99541.66
2018-06-21T16:03:36.469Z,99552.94
2018-06-21T16:06:05.332Z,99564.38
2018-06-21T16:08:34.074Z,99569.58
2018-06-21T16:11:02.778Z,99563.27
2018-06-21T16:13:31.833Z,99559.20
2018-06-21T16:16:00.734Z,99563.91
2018-06-21T16:18:29.613Z,99568.28
2018-06-21T16:20:58.330Z,99570.91
2018-06-21T16:23:27.030Z,99569.42
2018-06-21T16:25:55.722Z,99569.18
2018-06-21T16:28:24.540Z,99567.17
2018-06-21T16:30:53.149Z,99561.52
2018-06-21T16:33:21.869Z,99560.70
2018-06-21T16:35:50.550Z,99559.70
2018-06-21T16:38:19.265Z,99556.17
2018-06-21T16:40:48.035Z,99557.98
2018-06-21T16:43:16.717Z,99547.25
2018-06-21T16:45:45.437Z,99546.38
2018-06-21T16:48:14.163Z,99552.53
2018-06-21T16:50:42.871Z,99547.22
2018-06-21T16:53:11.575Z,99553.66
2018-06-21T16:55:40.306Z,99555.67
2018-06-21T16:58:09.201Z,99550.45
2018-06-21T17:00:37.911Z,99559.42
2018-06-21T17:03:06.605Z,99561.22
2018-06-21T17:05:35.356Z,99568.11
2018-06-21T17:08:04.124Z,99572.94
2018-06-21T17:10:32.877Z,99572.89
2018-06-21T17:13:01.630Z,99567.88
2018-06-21T17:15:30.326Z,99567.75
2018-06-21T17:17:59.488Z,99573.16
2018-06-21T17:20:28.510Z,99569.52
2018-06-21T17:22:57.710Z,99567.17
2018-06-21T17:25:26.813Z,99572.09
2018-06-21T17:27:56.109Z,99565.71
2018-06-21T17:30:25.239Z,99572.22
2018-06-21T17:32:54.094Z,99566.96
2018-06-21T17:35:23.306Z,99569.38
2018-06-21T17:37:52.301Z,99575.91
2018-06-21T17:40:21.591Z,99581.76
2018-06-21T17:42:50.897Z,99580.34
2018-06-21T17:45:19.963Z,99579.27
2018-06-21T17:47:49.127Z,99580.86
2018-06-21T17:50:18.323Z,99579.41
2018-06-21T17:52:47.493Z,99578.92
2018-06-21T17:55:16.556Z,99586.68
2018-06-21T17:57:45.920Z,99593.14
2018-06-21T18:00:15.007Z,99593.95
2018-06-21T18:02:44.408Z,99587.86
2018-06-21T18:05:13.569Z,99596.64
2018-06-21T18:07:42.790Z,99596.98
2018-06-21T18:10:11.753Z,99602.20
2018-06-21T18:12:40.789Z,99604.87
2018-06-21T18:15:09.957Z,99600.62
2018-06-21T18:17:39.049Z,99600.80
2018-06-21T18:20:08.220Z,99611.66
2018-06-21T18:22:37.264Z,99612.14
2018-06-21T18:25:06.447Z,99611.91
2018-06-21T18:27:35.581Z,99618.33
2018-06-21T18:30:04.738Z,99617.83
2018-06-21T18:32:34.001Z,99616.80
2018-06-21T18:35:03.338Z,99622.93
2018-06-21T18:37:32.529Z,99621.66
2018-06-21T18:40:01.733Z,99612.20
2018-06-21T18:42:30.952Z,99618.36
2018-06-21T18:45:00.161Z,99612.17
2018-06-21T18:47:29.242Z,99609.03
2018-06-21T18:49:58.320Z,99602.88
2018-06-21T18:52:27.525Z,99611.10
2018-06-21T18:54:56.732Z,99613.64
2018-06-21T18:57:25.865Z,99625.22
2018-06-21T18:59:55.125Z,99625.27
2018-06-21T19:02:24.327Z,99625.33
2018-06-21T19:04:53.631Z,99629.03
2018-06-21T19:07:28.002Z,99640.16
2018-06-21T19:10:02.524Z,99635.78
2018-06-21T19:12:31.796Z,99643.03
2018-06-21T19:15:00.943Z,99643.86
2018-06-21T19:17:30.044Z,99642.50
2018-06-21T19:19:59.097Z,99651.53
2018-06-21T19:22:28.273Z,99648.87
2018-06-21T19:24:57.452Z,99654.40
2018-06-21T19:27:26.780Z,99656.98
2018-06-21T19:29:55.830Z,99658.10
2018-06-21T19:32:24.829Z,99649.07
2018-06-21T19:34:53.879Z,99647.75
2018-06-21T19:37:23.033Z,99648.87
2018-06-21T19:39:52.253Z,99648.87
2018-06-21T19:42:21.435Z,99644.80
2018-06-21T19:44:50.453Z,99639.70
2018-06-21T19:47:19.482Z,99640.08
2018-06-21T19:49:48.729Z,99641.14
2018-06-21T19:52:17.938Z,99641.38
2018-06-21T19:54:47.163Z,99645.22
2018-06-21T19:57:16.295Z,99640.63
2018-06-21T19:59:45.504Z,99640.48
2018-06-21T20:02:14.710Z,99639.39
2018-06-21T20:04:43.890Z,99650.24
2018-06-21T20:07:13.355Z,99646.64
2018-06-21T20:09:42.393Z,99643.87
2018-06-21T20:12:11.589Z,99641.09
2018-06-21T20:14:40.809Z,99636.75
2018-06-21T20:17:10.010Z,99643.33
2018-06-21T20:19:44.436Z,99645.07
2018-06-21T20:22:13.722Z,99645.11
2018-06-21T20:24:42.797Z,99644.26
2018-06-21T20:27:12.014Z,99634.72
2018-06-21T20:29:41.201Z,99634.98
2018-06-21T20:32:10.290Z,99632.00
2018-06-21T20:34:39.385Z,99632.55
2018-06-21T20:37:12.615Z,99636.77
2018-06-21T20:39:41.877Z,99640.80
2018-06-21T20:42:11.101Z,99635.67
2018-06-21T20:44:40.314Z,99640.83
2018-06-21T20:47:09.481Z,99636.70
2018-06-21T20:49:38.681Z,99635.34
2018-06-21T20:52:12.075Z,99631.03
2018-06-21T20:54:41.400Z,99634.31
2018-06-21T20:57:10.701Z,99636.81
2018-06-21T20:59:40.078Z,99631.92
2018-06-21T21:02:09.285Z,99635.42
2018-06-21T21:05:16.269Z,99641.16
2018-06-21T21:07:46.530Z,99643.59
2018-06-21T21:10:16.625Z,99641.45
2018-06-21T21:12:45.694Z,99642.30
2018-06-21T21:15:15.357Z,99645.41
2018-06-21T21:17:44.632Z,99648.94
2018-06-21T21:20:13.901Z,99652.48
2018-06-21T21:22:43.135Z,99650.79
2018-06-21T21:25:12.298Z,99648.91
2018-06-21T21:27:41.597Z,99643.95
2018-06-21T21:30:10.883Z,99638.02
2018-06-21T21:32:40.028Z,99635.09
2018-06-21T21:35:09.201Z,99630.55
2018-06-21T21:37:38.434Z,99630.33
2018-06-21T21:40:08.113Z,99635.53
2018-06-21T21:42:38.398Z,99638.25
2018-06-21T21:45:07.666Z,99640.22
2018-06-21T21:47:36.734Z,99631.77
2018-06-21T21:50:05.922Z,99634.48
2018-06-21T21:52:35.158Z,99637.80
2018-06-21T21:55:04.363Z,99639.47
2018-06-21T21:57:33.516Z,99639.19
2018-06-21T22:00:02.718Z,99633.75
2018-06-21T22:02:32.009Z,99632.31
2018-06-21T22:05:01.307Z,99630.42
2018-06-21T22:07:30.642Z,99631.79
2018-06-21T22:09:59.714Z,99635.39
2018-06-21T22:12:28.914Z,99633.77
2018-06-21T22:14:58.110Z,99631.88
2018-06-21T22:17:27.323Z,99630.55
2018-06-21T22:19:56.325Z,99632.70
2018-06-21T22:22:25.381Z,99632.17
2018-06-21T22:24:54.609Z,99631.40
2018-06-21T22:27:23.810Z,99626.00
2018-06-21T22:29:52.993Z,99622.75
2018-06-21T22:32:22.229Z,99620.79
2018-06-21T22:34:51.401Z,99621.58
2018-06-21T22:37:20.384Z,99618.39
2018-06-21T22:39:49.606Z,99624.42
2018-06-21T22:42:18.773Z,99625.77
2018-06-21T22:44:48.025Z,99620.04
2018-06-21T22:47:17.193Z,99623.32
2018-06-21T22:49:46.390Z,99620.35
2018-06-21T22:52:15.594Z,99612.74
2018-06-21T22:54:44.774Z,99612.20
2018-06-21T22:57:13.969Z,99609.48
2018-06-21T22:59:43.170Z,99614.11
2018-06-21T23:02:12.375Z,99612.20
2018-06-21T23:04:41.339Z,99607.88
2018-06-21T23:07:10.450Z,99610.59
2018-06-21T23:09:39.650Z,99604.63
2018-06-21T23:12:08.741Z,99606.25
2018-06-21T23:14:37.948Z,99595.36
2018-06-21T23:17:07.135Z,99589.66
2018-06-21T23:19:36.480Z,99593.19
2018-06-21T23:22:05.641Z,99590.47
2018-06-21T23:24:34.868Z,99589.36
2018-06-21T23:27:04.139Z,99587.73
2018-06-21T23:29:33.233Z,99596.69
2018-06-21T23:32:02.541Z,99587.96
2018-06-21T23:34:31.733Z,99586.64
2018-06-21T23:37:00.867Z,99577.97
2018-06-21T23:39:29.797Z,99582.61
2018-06-21T23:41:58.920Z,99577.72
2018-06-21T23:44:28.145Z,99578.00
2018-06-21T23:46:57.319Z,99579.63
2018-06-21T23:49:26.519Z,99572.02
2018-06-21T23:51:55.716Z,99573.66
2018-06-21T23:54:24.946Z,99574.99
2018-06-21T23:56:54.101Z,99571.48
2018-06-21T23:59:22.788Z,99559.53
